»·PEaware :: N698J KSKX-KVNY

N698J :: KSKX-KVNY

FLIGHT INFORMATION

Flight Status: Arrived
Operator: Privately registered:
United States
More flights under this callsign
Pilot: Ahmad S. (5672)
Aircraft: BEECH AIRCRAFT BARON
(BE58)
More flights by this aircraft type
Origin: KSKX Taos Regl
United States
Destination: KVNY Van Nuys
United States
More flights between these airports :: More routes between these airports
Route:
File this flight plan on PilotEdge
Remarks:
Altitude:
(Current/Filed)
10,500ft
Speed:
(Current/Filed)
175kts
Departed: 06-Feb-21 04:54 AM
Arrived: 06-Feb-21 06:29 AM
Distance/Time
Traveled:
641nm/1:35
Distance/Time
To Go:
Arrived

Flight Plot

Page will automatically refresh every two minutes.

Flight plan parsing failed; only flown route is shown


Map Options




Map Legend


Flown Route
Filed Route
Departure Airport
Arrival Airport
Navaid (VOR, NDB)
Fix

Horizontal Profiles

Position Reports

Time Latitude Longitude Heading Altitude Ground
Speed
06-Feb-21 04:52 35.243839 -114.017338 265 6112ft 167kts
06-Feb-21 04:53 35.236130 -114.073931 258 7683ft 171kts
06-Feb-21 04:54 35.226159 -114.131484 260 8948ft 177kts
06-Feb-21 04:55 35.215581 -114.191034 260 10057ft 181kts
06-Feb-21 04:56 35.204853 -114.253906 261 10473ft 198kts
06-Feb-21 04:57 35.193016 -114.321054 262 10465ft 203kts
06-Feb-21 04:58 35.181150 -114.388502 262 10458ft 203kts
06-Feb-21 04:59 35.169392 -114.455621 262 10457ft 201kts
06-Feb-21 05:00 35.157494 -114.522573 262 10462ft 201kts
06-Feb-21 05:01 35.145654 -114.589527 262 10459ft 201kts
06-Feb-21 05:02 35.133818 -114.656069 263 10460ft 200kts
06-Feb-21 05:03 35.121877 -114.722865 263 10456ft 200kts
06-Feb-21 05:04 35.109971 -114.789346 263 10461ft 200kts
06-Feb-21 05:05 35.098009 -114.855932 263 10460ft 200kts
06-Feb-21 05:06 35.085932 -114.922861 262 10462ft 201kts
06-Feb-21 05:07 35.073890 -114.989448 262 10528ft 200kts
06-Feb-21 05:08 35.061848 -115.055684 262 10544ft 200kts
06-Feb-21 05:09 35.049730 -115.122249 262 10542ft 201kts
06-Feb-21 05:10 35.037548 -115.188942 262 10533ft 201kts
06-Feb-21 05:11 35.025331 -115.255554 262 10526ft 200kts
06-Feb-21 05:12 35.013125 -115.321809 262 10527ft 200kts
06-Feb-21 05:13 35.000938 -115.388170 261 10522ft 200kts
06-Feb-21 05:14 34.988565 -115.454647 261 10528ft 201kts
06-Feb-21 05:15 34.976285 -115.520932 260 10510ft 200kts
06-Feb-21 05:16 34.963908 -115.587382 260 10532ft 203kts
06-Feb-21 05:17 34.951526 -115.653870 260 10520ft 200kts
06-Feb-21 05:18 34.939066 -115.719910 260 10523ft 200kts
06-Feb-21 05:19 34.926645 -115.786023 260 10500ft 200kts
06-Feb-21 05:20 34.914164 -115.852254 260 10496ft 199kts
06-Feb-21 05:21 34.901682 -115.918083 260 10498ft 199kts
06-Feb-21 05:22 34.889152 -115.984069 261 10500ft 200kts
06-Feb-21 05:23 34.876567 -116.050101 261 10497ft 200kts
06-Feb-21 05:24 34.863940 -116.116213 261 10493ft 200kts
06-Feb-21 05:25 34.851314 -116.182185 261 10485ft 199kts
06-Feb-21 05:26 34.838610 -116.248057 261 10486ft 200kts
06-Feb-21 05:27 34.825846 -116.314249 261 10485ft 200kts
06-Feb-21 05:28 34.813033 -116.380421 261 10479ft 200kts
06-Feb-21 05:29 34.800279 -116.446346 261 10486ft 200kts
06-Feb-21 05:30 34.792203 -116.513089 268 10485ft 199kts
06-Feb-21 05:31 34.785527 -116.580278 267 10484ft 200kts
06-Feb-21 05:32 34.779063 -116.647901 267 10484ft 201kts
06-Feb-21 05:33 34.772318 -116.715806 267 10476ft 202kts
06-Feb-21 05:34 34.765613 -116.783788 266 10484ft 203kts
06-Feb-21 05:35 34.758775 -116.852505 266 10475ft 203kts
06-Feb-21 05:36 34.751930 -116.920793 266 10483ft 204kts
06-Feb-21 05:37 34.745027 -116.989426 265 10483ft 205kts
06-Feb-21 05:38 34.738040 -117.058394 265 10488ft 206kts
06-Feb-21 05:39 34.730973 -117.127940 265 10485ft 207kts
06-Feb-21 05:40 34.723854 -117.197407 264 10486ft 208kts
06-Feb-21 05:41 34.716641 -117.267143 264 10488ft 208kts
06-Feb-21 05:42 34.709431 -117.336865 263 10484ft 207kts
06-Feb-21 05:43 34.706692 -117.363084 263 10491ft 208kts
06-Feb-21 05:44 34.706692 -117.363084 263 10491ft 208kts
06-Feb-21 05:45 34.706692 -117.363084 263 10491ft 208kts
06-Feb-21 05:46 34.706692 -117.363084 263 10491ft 208kts
06-Feb-21 05:47 34.706692 -117.363084 263 10491ft 208kts
06-Feb-21 05:48 34.706692 -117.363084 263 10491ft 208kts
06-Feb-21 05:49 34.706692 -117.363084 263 10491ft 208kts
06-Feb-21 05:50 34.706692 -117.363084 263 10491ft 208kts
06-Feb-21 05:51 34.706692 -117.363084 263 10491ft 208kts
06-Feb-21 05:52 34.706692 -117.363084 263 10491ft 208kts
06-Feb-21 05:53 34.706692 -117.363084 263 10491ft 208kts
06-Feb-21 05:54 34.706692 -117.363084 263 10491ft 208kts
06-Feb-21 05:55 34.706692 -117.363084 263 10491ft 208kts
06-Feb-21 05:56 34.706692 -117.363084 263 10491ft 208kts
06-Feb-21 05:57 34.706692 -117.363084 263 10491ft 208kts
06-Feb-21 05:58 34.706692 -117.363084 263 10491ft 208kts
06-Feb-21 05:59 34.706692 -117.363084 263 10491ft 208kts
06-Feb-21 06:00 34.706692 -117.363084 263 10491ft 208kts
06-Feb-21 06:01 34.706692 -117.363084 263 10491ft 208kts
06-Feb-21 06:02 34.706692 -117.363084 263 10491ft 208kts
06-Feb-21 06:03 34.706692 -117.363084 263 10491ft 208kts
06-Feb-21 06:04 34.702834 -117.406268 261 10497ft 208kts
06-Feb-21 06:05 34.694825 -117.476187 263 10498ft 208kts
06-Feb-21 06:06 34.687413 -117.546010 262 10496ft 208kts
06-Feb-21 06:07 34.680242 -117.615782 262 10501ft 208kts
06-Feb-21 06:08 34.672658 -117.685505 262 10503ft 208kts
06-Feb-21 06:09 34.665216 -117.755271 261 10503ft 208kts
06-Feb-21 06:10 34.657739 -117.825104 261 10502ft 208kts
06-Feb-21 06:11 34.650147 -117.894705 261 10500ft 207kts
06-Feb-21 06:12 34.642616 -117.964097 261 10503ft 207kts
06-Feb-21 06:13 34.634998 -118.033683 261 10503ft 207kts
06-Feb-21 06:14 34.623057 -118.102846 248 10105ft 217kts
06-Feb-21 06:15 34.599210 -118.171509 245 9305ft 223kts
06-Feb-21 06:16 34.575219 -118.241417 245 8614ft 222kts
06-Feb-21 06:17 34.551658 -118.309467 246 8150ft 223kts
06-Feb-21 06:18 34.527832 -118.378016 246 7143ft 202kts
06-Feb-21 06:20 34.508438 -118.433624 247 6143ft 166kts
06-Feb-21 06:21 34.481072 -118.468917 186 5163ft 154kts
06-Feb-21 06:22 34.438811 -118.471917 182 4174ft 154kts
06-Feb-21 06:23 34.398630 -118.479012 193 4061ft 147kts
06-Feb-21 06:24 34.357306 -118.488978 200 3752ft 160kts
06-Feb-21 06:25 34.313223 -118.498748 180 2782ft 156kts
06-Feb-21 06:26 34.272823 -118.496717 175 2606ft 131kts
06-Feb-21 06:27 34.240673 -118.493194 177 1629ft 95kts
06-Feb-21 06:28 34.215465 -118.490893 174 826ft 85kts
06-Feb-21 06:29 34.204022 -118.490544 201 766ft 6kts
06-Feb-21 06:30 34.202376 -118.491394 185 758ft 4kts
06-Feb-21 06:31 34.202313 -118.491391 175 758ft 0kts

Navigation Log

Ident Type
Flight plan parsing failed, navigation log unavailable